createdAt,value
2022-12-12T00:01:31.246Z,99259.03
2022-12-12T00:04:20.723Z,99258.53
2022-12-12T00:07:09.113Z,99261.84
2022-12-12T00:09:57.085Z,99257.88
2022-12-12T00:12:45.090Z,99267.47
2022-12-12T00:15:33.123Z,99263.34
2022-12-12T00:18:21.127Z,99260.16
2022-12-12T00:21:15.162Z,99256.19
2022-12-12T00:24:03.183Z,99253.50
2022-12-12T00:26:51.116Z,99260.78
2022-12-12T00:29:39.297Z,99265.22
2022-12-12T00:32:27.532Z,99255.53
2022-12-12T00:35:15.633Z,99259.03
2022-12-12T00:38:04.941Z,99258.88
2022-12-12T00:40:57.162Z,99270.44
2022-12-12T00:43:45.529Z,99260.91
2022-12-12T00:46:33.530Z,99261.22
2022-12-12T00:49:21.510Z,99268.22
2022-12-12T00:52:09.441Z,99265.84
2022-12-12T00:54:58.928Z,99257.88
2022-12-12T00:57:46.862Z,99261.81
2022-12-12T01:00:35.512Z,99274.41
2022-12-12T01:03:23.766Z,99270.59
2022-12-12T01:06:12.893Z,99269.31
2022-12-12T01:09:01.099Z,99205.34
2022-12-12T01:11:50.436Z,99273.25
2022-12-12T01:14:38.368Z,99281.97
2022-12-12T01:17:27.525Z,99270.06
2022-12-12T01:20:19.116Z,99282.28
2022-12-12T01:23:07.018Z,99283.59
2022-12-12T01:26:00.702Z,99289.44
2022-12-12T01:28:50.611Z,99288.97
2022-12-12T01:31:38.851Z,99283.25
2022-12-12T01:34:26.860Z,99288.13
2022-12-12T01:37:14.840Z,99289.34
2022-12-12T01:40:03.030Z,99286.97
2022-12-12T01:42:51.626Z,99287.56
2022-12-12T01:46:19.119Z,99288.22
2022-12-12T01:49:14.243Z,99289.50
2022-12-12T01:52:06.818Z,99293.19
2022-12-12T01:54:58.248Z,99301.44
2022-12-12T01:57:50.134Z,99301.91
2022-12-12T02:00:38.246Z,99305.06
2022-12-12T02:03:26.838Z,99301.72
2022-12-12T02:06:19.690Z,99303.75
2022-12-12T02:09:10.422Z,99309.66
2022-12-12T02:11:58.870Z,99309.06
2022-12-12T02:14:52.136Z,99304.13
2022-12-12T02:17:53.634Z,99310.03
2022-12-12T02:20:55.011Z,99308.59
2022-12-12T02:24:29.061Z,99317.28
2022-12-12T02:27:53.955Z,99316.34
2022-12-12T02:30:49.555Z,99320.81
2022-12-12T02:33:42.875Z,99318.72
2022-12-12T02:36:37.447Z,99319.88
2022-12-12T02:39:34.314Z,99318.13
2022-12-12T02:42:27.920Z,99305.59
2022-12-12T02:45:21.492Z,99321.78
2022-12-12T02:48:14.693Z,99323.22
2022-12-12T02:51:07.613Z,99327.97
2022-12-12T02:53:55.688Z,99326.72
2022-12-12T02:56:47.756Z,99328.63
2022-12-12T02:59:38.977Z,99324.00
2022-12-12T03:03:19.526Z,99324.66
2022-12-12T03:06:41.294Z,99327.50
2022-12-12T03:09:41.006Z,99329.72
2022-12-12T03:12:38.624Z,99328.78
2022-12-12T03:15:35.193Z,99329.38
2022-12-12T03:18:28.695Z,99319.72
2022-12-12T03:21:23.364Z,99322.44
2022-12-12T03:24:18.878Z,99328.63
2022-12-12T03:27:12.014Z,99329.56
2022-12-12T03:30:03.553Z,99294.97
2022-12-12T03:32:58.619Z,99323.19
2022-12-12T03:35:51.389Z,99325.91
2022-12-12T03:38:45.053Z,99326.25
2022-12-12T03:41:37.355Z,99320.03
2022-12-12T03:44:30.230Z,99320.97
2022-12-12T03:47:23.441Z,99323.03
2022-12-12T03:50:17.479Z,99320.19
2022-12-12T03:53:11.237Z,99331.75
2022-12-12T03:56:06.638Z,99315.06
2022-12-12T03:59:00.633Z,99323.84
2022-12-12T04:01:53.908Z,99217.91
2022-12-12T04:04:48.068Z,99331.31
2022-12-12T04:07:41.354Z,99324.31
2022-12-12T04:10:51.725Z,99322.25
2022-12-12T04:13:50.084Z,99325.28
2022-12-12T04:16:43.232Z,99323.97
2022-12-12T04:19:58.539Z,99318.13
2022-12-12T04:23:10.860Z,99313.34
2022-12-12T04:26:25.800Z,99324.94
2022-12-12T04:29:29.736Z,99325.91
2022-12-12T04:32:23.910Z,99318.94
2022-12-12T04:35:15.921Z,99331.78
2022-12-12T04:38:07.189Z,99332.59
2022-12-12T04:40:58.625Z,99339.91
2022-12-12T04:43:50.283Z,99336.72
2022-12-12T04:46:41.992Z,99334.97
2022-12-12T04:49:33.422Z,99304.50
2022-12-12T04:52:23.411Z,99341.66
2022-12-12T04:55:16.399Z,99346.09
2022-12-12T04:58:07.123Z,99336.25
2022-12-12T05:01:01.937Z,99342.59
2022-12-12T05:03:55.372Z,99349.91
2022-12-12T05:06:46.995Z,99347.84
2022-12-12T05:09:36.247Z,99353.91
2022-12-12T05:12:24.268Z,99351.66
2022-12-12T05:15:13.806Z,99354.34
2022-12-12T05:18:06.387Z,99353.88
2022-12-12T05:20:55.651Z,99353.56
2022-12-12T05:23:43.661Z,99354.50
2022-12-12T05:26:33.392Z,99347.03
2022-12-12T05:29:27.514Z,99355.13
2022-12-12T05:32:15.479Z,99349.72
2022-12-12T05:35:03.563Z,99359.44
2022-12-12T05:37:52.959Z,99356.41
2022-12-12T05:40:40.931Z,99357.38
2022-12-12T05:43:30.136Z,99359.28
2022-12-12T05:46:18.123Z,99363.09
2022-12-12T05:49:06.558Z,99365.47
2022-12-12T05:51:55.067Z,99368.66
2022-12-12T05:54:44.385Z,99369.47
2022-12-12T05:57:32.317Z,99369.16
2022-12-12T06:00:20.953Z,99369.63
2022-12-12T06:03:08.920Z,99373.28
2022-12-12T06:05:57.148Z,99380.13
2022-12-12T06:08:45.200Z,99379.16
2022-12-12T06:11:34.500Z,99375.03
2022-12-12T06:14:22.502Z,99378.03
2022-12-12T06:17:10.436Z,99385.03
2022-12-12T06:19:58.421Z,99379.47
2022-12-12T06:22:52.051Z,99385.38
2022-12-12T06:25:41.708Z,99381.41
2022-12-12T06:28:31.460Z,99399.53
2022-12-12T06:31:19.514Z,99395.06
2022-12-12T06:34:08.057Z,99389.66
2022-12-12T06:36:55.997Z,99393.31
2022-12-12T06:39:43.907Z,99393.94
2022-12-12T06:42:31.861Z,99400.63
2022-12-12T06:45:21.477Z,99257.75
2022-12-12T06:48:09.482Z,99400.00
2022-12-12T06:50:57.801Z,99401.28
2022-12-12T06:53:46.029Z,99396.81
2022-12-12T06:56:34.047Z,99408.22
2022-12-12T06:59:22.025Z,99406.00
2022-12-12T07:02:12.500Z,99408.06
2022-12-12T07:04:40.121Z,99420.19
2022-12-12T07:07:07.869Z,99422.22
2022-12-12T07:09:35.559Z,99413.81
2022-12-12T07:12:03.262Z,99416.97
2022-12-12T07:14:30.971Z,99419.84
2022-12-12T07:16:59.022Z,99427.75
2022-12-12T07:19:28.010Z,99426.19
2022-12-12T07:21:55.650Z,99422.69
2022-12-12T07:24:23.419Z,99425.72
2022-12-12T07:26:51.130Z,99429.38
2022-12-12T07:29:18.878Z,99439.03
2022-12-12T07:31:46.477Z,99436.34
2022-12-12T07:34:14.129Z,99437.16
2022-12-12T07:36:43.148Z,99444.91
2022-12-12T07:39:12.565Z,99445.25
2022-12-12T07:41:43.601Z,99440.34
2022-12-12T07:44:11.231Z,99446.38
2022-12-12T07:46:39.307Z,99439.53
2022-12-12T07:49:07.090Z,99455.59
2022-12-12T07:51:34.855Z,99453.50
2022-12-12T07:54:03.953Z,99456.56
2022-12-12T07:56:31.720Z,99459.88
2022-12-12T07:58:59.374Z,99462.28
2022-12-12T08:01:29.584Z,99464.19
2022-12-12T08:03:57.709Z,99462.16
2022-12-12T08:06:25.805Z,99462.94
2022-12-12T08:08:54.566Z,99472.59
2022-12-12T08:11:26.069Z,99464.66
2022-12-12T08:13:54.714Z,99467.56
2022-12-12T08:16:24.652Z,99461.00
2022-12-12T08:18:54.714Z,99459.41
2022-12-12T08:21:25.641Z,99453.38
2022-12-12T08:23:56.536Z,99464.84
2022-12-12T08:26:26.945Z,99473.28
2022-12-12T08:28:56.543Z,99477.91
2022-12-12T08:31:24.677Z,99479.47
2022-12-12T08:33:53.036Z,99476.63
2022-12-12T08:36:23.412Z,99478.50
2022-12-12T08:38:51.724Z,99479.81
2022-12-12T08:41:20.806Z,99485.22
2022-12-12T08:43:50.612Z,99492.06
2022-12-12T08:46:22.235Z,99481.72
2022-12-12T08:48:50.759Z,99486.00
2022-12-12T08:51:19.699Z,99496.66
2022-12-12T08:53:49.049Z,99456.75
2022-12-12T08:56:18.289Z,99499.22
2022-12-12T08:58:46.482Z,99507.31
2022-12-12T09:01:17.811Z,99499.03
2022-12-12T09:03:46.030Z,99501.59
2022-12-12T09:06:14.224Z,99502.06
2022-12-12T09:08:42.621Z,99502.88
2022-12-12T09:11:10.980Z,99506.53
2022-12-12T09:13:39.015Z,99516.56
2022-12-12T09:16:08.472Z,99517.19
2022-12-12T09:18:40.839Z,99521.16
2022-12-12T09:21:12.418Z,99521.81
2022-12-12T09:23:40.111Z,99526.41
2022-12-12T09:26:09.634Z,99515.91
2022-12-12T09:28:37.590Z,99531.81
2022-12-12T09:31:06.882Z,99530.69
2022-12-12T09:33:35.200Z,99527.50
2022-12-12T09:36:07.921Z,99531.31
2022-12-12T09:38:36.353Z,99528.63
2022-12-12T09:41:11.630Z,99517.63
2022-12-12T09:43:45.139Z,99528.28
2022-12-12T09:46:23.130Z,99529.22
2022-12-12T09:48:50.796Z,99521.75
2022-12-12T09:51:25.938Z,99530.03
2022-12-12T09:53:53.763Z,99518.91
2022-12-12T09:56:28.752Z,99513.34
2022-12-12T09:59:05.443Z,99498.53
2022-12-12T10:01:39.164Z,99503.16
2022-12-12T10:04:16.618Z,99504.75
2022-12-12T10:06:52.165Z,99513.38
2022-12-12T10:09:35.665Z,99504.59
2022-12-12T10:12:08.442Z,99505.56
2022-12-12T10:14:41.968Z,99508.59
2022-12-12T10:17:16.360Z,99510.34
2022-12-12T10:19:50.132Z,99519.72
2022-12-12T10:22:26.932Z,99508.09
2022-12-12T10:24:59.223Z,99511.75
2022-12-12T10:27:26.849Z,99510.66
2022-12-12T10:29:55.068Z,99507.31
2022-12-12T10:32:34.521Z,99503.34
2022-12-12T10:35:18.846Z,99489.66
2022-12-12T10:38:01.036Z,99510.81
2022-12-12T10:40:49.603Z,99495.19
2022-12-12T10:43:22.327Z,99513.66
2022-12-12T10:46:12.325Z,99516.00
2022-12-12T10:48:40.324Z,99519.53
2022-12-12T10:51:12.397Z,99521.03
2022-12-12T10:53:42.970Z,99521.13
2022-12-12T10:56:13.371Z,99513.72
2022-12-12T10:58:43.082Z,99513.50
2022-12-12T11:01:14.499Z,99516.66
2022-12-12T11:03:45.831Z,99516.19
2022-12-12T11:06:16.359Z,99518.31
2022-12-12T11:08:56.314Z,99505.63
2022-12-12T11:11:25.889Z,99515.53
2022-12-12T11:13:55.507Z,99511.72
2022-12-12T11:16:25.673Z,99464.94
2022-12-12T11:19:07.698Z,99506.28
2022-12-12T11:21:37.647Z,99502.72
2022-12-12T11:24:10.321Z,99499.63
2022-12-12T11:26:46.272Z,99504.03
2022-12-12T11:29:35.158Z,99506.34
2022-12-12T11:32:04.507Z,99515.63
2022-12-12T11:34:34.965Z,99508.78
2022-12-12T11:37:04.025Z,99506.63
2022-12-12T11:39:38.893Z,99512.63
2022-12-12T11:42:19.172Z,99502.31
2022-12-12T11:44:57.649Z,99502.06
2022-12-12T11:47:28.819Z,99490.09
2022-12-12T11:49:58.348Z,99505.09
2022-12-12T11:52:30.078Z,99419.13
2022-12-12T11:55:00.424Z,99500.81
2022-12-12T11:57:44.920Z,99502.44
2022-12-12T12:00:16.903Z,99503.38
2022-12-12T12:03:14.275Z,99500.66
2022-12-12T12:05:52.248Z,99491.88
2022-12-12T12:08:35.400Z,99494.63
2022-12-12T12:11:18.178Z,99496.28
2022-12-12T12:14:04.192Z,99491.88
2022-12-12T12:16:47.060Z,99492.25
2022-12-12T12:19:20.754Z,99488.41
2022-12-12T12:22:01.156Z,99484.84
2022-12-12T12:25:04.998Z,99483.03
2022-12-12T12:27:42.918Z,99480.53
2022-12-12T12:30:20.524Z,99477.84
2022-12-12T12:33:16.968Z,99478.31
2022-12-12T12:35:57.526Z,99473.16
2022-12-12T12:38:29.159Z,99478.94
2022-12-12T12:41:15.765Z,99465.38
2022-12-12T12:44:04.713Z,99474.00
2022-12-12T12:46:40.687Z,99469.41
2022-12-12T12:49:16.155Z,99473.84
2022-12-12T12:51:50.601Z,99472.53
2022-12-12T12:54:23.960Z,99473.81
2022-12-12T12:56:57.276Z,99448.22
2022-12-12T12:59:33.293Z,99461.91
2022-12-12T13:02:05.697Z,99458.66
2022-12-12T13:04:42.547Z,99448.97
2022-12-12T13:07:17.605Z,99466.06
2022-12-12T13:09:51.345Z,99447.00
2022-12-12T13:12:26.862Z,99457.88
2022-12-12T13:14:59.275Z,99446.44
2022-12-12T13:17:40.086Z,99453.59
2022-12-12T13:20:16.885Z,99464.31
2022-12-12T13:22:58.305Z,99457.72
2022-12-12T13:25:35.759Z,99460.13
2022-12-12T13:28:11.856Z,99450.13
2022-12-12T13:30:58.521Z,99447.41
2022-12-12T13:33:39.517Z,99447.00
2022-12-12T13:36:12.370Z,99443.69
2022-12-12T13:38:41.849Z,99439.69
2022-12-12T13:41:11.085Z,99449.28
2022-12-12T13:43:45.633Z,99447.56
2022-12-12T13:46:38.579Z,99448.88
2022-12-12T13:49:29.036Z,99453.78
2022-12-12T13:52:27.995Z,99439.34
2022-12-12T13:55:18.910Z,99441.69
2022-12-12T13:58:17.287Z,99442.53
2022-12-12T14:00:45.493Z,99410.78
2022-12-12T14:03:31.338Z,99436.31
2022-12-12T14:06:11.425Z,99439.03
2022-12-12T14:08:47.337Z,99443.97
2022-12-12T14:11:27.523Z,99444.47
2022-12-12T14:14:18.259Z,99437.81
2022-12-12T14:16:53.589Z,99429.94
2022-12-12T14:19:35.858Z,99430.00
2022-12-12T14:22:04.116Z,99428.84
2022-12-12T14:25:06.886Z,99432.28
2022-12-12T14:28:04.345Z,99433.63
2022-12-12T14:30:45.588Z,99429.00
2022-12-12T14:33:42.262Z,99439.19
2022-12-12T14:36:49.640Z,99439.25
2022-12-12T14:39:33.696Z,99433.03
2022-12-12T14:42:05.992Z,99436.56
2022-12-12T14:44:36.281Z,99418.13
2022-12-12T14:47:08.749Z,99420.84
2022-12-12T14:49:36.768Z,99426.72
2022-12-12T14:52:06.164Z,99432.31
2022-12-12T14:54:34.051Z,99427.72
2022-12-12T14:57:02.357Z,99443.47
2022-12-12T14:59:33.635Z,99438.09
2022-12-12T15:02:07.142Z,99444.50
2022-12-12T15:04:38.981Z,99437.66
2022-12-12T15:07:23.962Z,99440.38
2022-12-12T15:09:51.648Z,99432.72
2022-12-12T15:12:22.486Z,99431.16
2022-12-12T15:14:56.530Z,99450.88
2022-12-12T15:17:27.663Z,99453.25
2022-12-12T15:19:58.700Z,99435.91
2022-12-12T15:22:29.742Z,99454.66
2022-12-12T15:24:59.494Z,99451.66
2022-12-12T15:27:31.753Z,99441.00
2022-12-12T15:30:00.580Z,99445.75
2022-12-12T15:32:29.678Z,99433.81
2022-12-12T15:35:04.215Z,99440.34
2022-12-12T15:37:34.817Z,99444.28
2022-12-12T15:40:19.959Z,99439.31
2022-12-12T15:42:52.427Z,99434.38
2022-12-12T15:45:25.687Z,99433.44
2022-12-12T15:47:55.509Z,99444.41
2022-12-12T15:50:26.547Z,99433.13
2022-12-12T15:53:05.478Z,99397.63
2022-12-12T15:55:34.387Z,99429.75
2022-12-12T15:58:02.170Z,99421.50
2022-12-12T16:00:34.443Z,99423.97
2022-12-12T16:03:06.004Z,99421.41
2022-12-12T16:05:37.355Z,99403.03
2022-12-12T16:08:32.117Z,99410.81
2022-12-12T16:11:01.801Z,99416.91
2022-12-12T16:13:37.106Z,99422.50
2022-12-12T16:16:36.506Z,99429.97
2022-12-12T16:19:06.242Z,99429.13
2022-12-12T16:21:36.549Z,99444.31
2022-12-12T16:24:20.881Z,99448.38
2022-12-12T16:26:48.567Z,99447.16
2022-12-12T16:29:16.340Z,99446.47
2022-12-12T16:31:44.892Z,99453.50
2022-12-12T16:34:12.655Z,99454.00
2022-12-12T16:36:42.355Z,99460.25
2022-12-12T16:39:13.743Z,99462.66
2022-12-12T16:41:42.053Z,99461.22
2022-12-12T16:44:09.766Z,99467.66
2022-12-12T16:46:37.516Z,99464.25
2022-12-12T16:49:07.360Z,99463.13
2022-12-12T16:51:37.872Z,99456.75
2022-12-12T16:54:05.723Z,99463.59
2022-12-12T16:56:34.866Z,99454.69
2022-12-12T16:59:02.605Z,99459.38
2022-12-12T17:01:33.390Z,99463.00
2022-12-12T17:04:05.150Z,99466.44
2022-12-12T17:06:32.907Z,99468.03
2022-12-12T17:09:00.535Z,99464.28
2022-12-12T17:11:28.248Z,99462.34
2022-12-12T17:13:57.227Z,99466.31
2022-12-12T17:16:27.880Z,99468.28
2022-12-12T17:18:56.011Z,99462.41
2022-12-12T17:21:23.655Z,99453.63
2022-12-12T17:23:51.646Z,99456.16
2022-12-12T17:26:19.296Z,99458.22
2022-12-12T17:28:46.910Z,99459.75
2022-12-12T17:31:15.918Z,99464.28
2022-12-12T17:33:50.538Z,99459.25
2022-12-12T17:36:19.684Z,99437.22
2022-12-12T17:38:48.831Z,99455.25
2022-12-12T17:41:16.729Z,99456.19
2022-12-12T17:43:44.459Z,99460.78
2022-12-12T17:46:15.033Z,99448.81
2022-12-12T17:48:47.284Z,99458.19
2022-12-12T17:51:16.263Z,99454.38
2022-12-12T17:53:44.232Z,99470.81
2022-12-12T17:56:14.174Z,99460.66
2022-12-12T17:58:43.852Z,99465.94
2022-12-12T18:01:12.412Z,99466.66
2022-12-12T18:03:40.190Z,99466.34
2022-12-12T18:06:11.160Z,99438.63
2022-12-12T18:08:39.168Z,99471.31
2022-12-12T18:11:08.778Z,99468.13
2022-12-12T18:13:38.514Z,99417.34
2022-12-12T18:16:08.216Z,99467.25
2022-12-12T18:18:36.194Z,99463.19
2022-12-12T18:21:05.506Z,99464.84
2022-12-12T18:23:35.198Z,99463.06
2022-12-12T18:26:05.027Z,99464.25
2022-12-12T18:28:32.825Z,99464.56
2022-12-12T18:31:00.662Z,99459.22
2022-12-12T18:33:28.551Z,99451.34
2022-12-12T18:36:01.918Z,99453.81
2022-12-12T18:38:30.301Z,99432.63
2022-12-12T18:40:59.617Z,99451.25
2022-12-12T18:43:28.165Z,99454.31
2022-12-12T18:45:55.980Z,99441.38
2022-12-12T18:48:23.804Z,99452.53
2022-12-12T18:50:51.463Z,99452.44
2022-12-12T18:53:19.255Z,99451.44
2022-12-12T18:55:47.596Z,99438.28
2022-12-12T18:58:16.588Z,99450.03
2022-12-12T19:00:46.452Z,99455.31
2022-12-12T19:03:14.223Z,99458.00
2022-12-12T19:05:44.400Z,99452.44
2022-12-12T19:08:12.806Z,99454.72
2022-12-12T19:10:41.776Z,99457.41
2022-12-12T19:13:09.443Z,99457.81
2022-12-12T19:15:38.842Z,99465.19
2022-12-12T19:18:06.752Z,99478.53
2022-12-12T19:20:36.555Z,99471.88
2022-12-12T19:23:04.325Z,99477.13
2022-12-12T19:25:40.913Z,99468.16
2022-12-12T19:28:11.431Z,99471.22
2022-12-12T19:30:42.410Z,99465.66
2022-12-12T19:33:10.339Z,99465.66
2022-12-12T19:35:38.688Z,99451.31
2022-12-12T19:38:06.360Z,99453.31
2022-12-12T19:40:34.115Z,99456.00
2022-12-12T19:43:02.757Z,99451.34
2022-12-12T19:45:31.073Z,99446.75
2022-12-12T19:48:00.076Z,99446.94
2022-12-12T19:50:27.770Z,99443.06
2022-12-12T19:52:55.976Z,99443.94
2022-12-12T19:55:24.061Z,99444.94
2022-12-12T19:57:51.709Z,99446.22
2022-12-12T20:00:20.845Z,99454.81
2022-12-12T20:02:48.586Z,99446.34
2022-12-12T20:05:17.818Z,99434.28
2022-12-12T20:07:45.539Z,99449.22
2022-12-12T20:10:13.586Z,99447.75
2022-12-12T20:12:51.904Z,99451.03
2022-12-12T20:15:24.007Z,99452.50
2022-12-12T20:17:51.638Z,99455.91
2022-12-12T20:20:21.906Z,99456.31
2022-12-12T20:22:49.697Z,99457.47
2022-12-12T20:25:17.575Z,99463.69
2022-12-12T20:27:45.226Z,99457.38
2022-12-12T20:30:13.581Z,99439.38
2022-12-12T20:32:41.428Z,99447.22
2022-12-12T20:35:09.590Z,99455.00
2022-12-12T20:37:38.693Z,99454.63
2022-12-12T20:40:08.304Z,99448.63
2022-12-12T20:42:36.017Z,99450.44
2022-12-12T20:45:03.628Z,99458.72
2022-12-12T20:47:33.326Z,99447.34
2022-12-12T20:50:01.133Z,99448.44
2022-12-12T20:52:29.153Z,99447.44
2022-12-12T20:54:58.392Z,99448.06
2022-12-12T20:57:26.091Z,99439.88
2022-12-12T20:59:54.718Z,99444.25
2022-12-12T21:02:26.081Z,99442.06
2022-12-12T21:05:15.465Z,99438.56
2022-12-12T21:08:03.849Z,99425.75
2022-12-12T21:10:53.235Z,99424.53
2022-12-12T21:13:41.183Z,99426.25
2022-12-12T21:16:31.690Z,99418.66
2022-12-12T21:19:19.734Z,99429.22
2022-12-12T21:22:08.317Z,99428.91
2022-12-12T21:24:56.231Z,99426.94
2022-12-12T21:27:45.510Z,99428.09
2022-12-12T21:30:33.488Z,99431.28
2022-12-12T21:33:21.671Z,99433.81
2022-12-12T21:36:12.330Z,99423.03
2022-12-12T21:39:02.301Z,99347.03
2022-12-12T21:41:51.865Z,99408.56
2022-12-12T21:44:45.484Z,99413.56
2022-12-12T21:47:33.845Z,99423.31
2022-12-12T21:50:26.048Z,99435.97
2022-12-12T21:53:35.288Z,99432.69
2022-12-12T21:56:23.187Z,99418.84
2022-12-12T21:59:11.864Z,99424.09
2022-12-12T22:02:01.828Z,99423.22
2022-12-12T22:04:49.826Z,99421.91
2022-12-12T22:07:37.744Z,99420.75
2022-12-12T22:10:25.681Z,99425.41
2022-12-12T22:13:13.613Z,99414.28
2022-12-12T22:16:04.321Z,99412.28
2022-12-12T22:18:54.998Z,99417.25
2022-12-12T22:21:45.275Z,99413.38
2022-12-12T22:24:33.403Z,99415.56
2022-12-12T22:27:21.304Z,99413.97
2022-12-12T22:30:10.121Z,99419.75
2022-12-12T22:32:58.043Z,99410.78
2022-12-12T22:35:47.317Z,99412.00
2022-12-12T22:38:38.377Z,99414.28
2022-12-12T22:41:27.121Z,99415.97
2022-12-12T22:44:16.869Z,99413.56
2022-12-12T22:47:04.952Z,99414.97
2022-12-12T22:49:53.056Z,99411.59
2022-12-12T22:52:42.317Z,99401.31
2022-12-12T22:55:30.245Z,99403.41
2022-12-12T22:58:18.174Z,99403.91
2022-12-12T23:01:10.684Z,99409.78
2022-12-12T23:03:59.164Z,99411.09
2022-12-12T23:06:47.266Z,99402.72
2022-12-12T23:09:36.614Z,99397.84
2022-12-12T23:12:24.568Z,99401.31
2022-12-12T23:15:12.959Z,99385.88
2022-12-12T23:18:01.007Z,99397.34
2022-12-12T23:20:48.983Z,99401.03
2022-12-12T23:23:37.402Z,99400.72
2022-12-12T23:26:30.087Z,99394.34
2022-12-12T23:29:20.098Z,99393.06
2022-12-12T23:32:08.577Z,99396.34
2022-12-12T23:34:56.503Z,99396.72
2022-12-12T23:37:44.411Z,99398.13
2022-12-12T23:40:32.325Z,99395.03
2022-12-12T23:43:21.582Z,99387.97
2022-12-12T23:46:27.865Z,99391.38
2022-12-12T23:49:18.746Z,99388.19
2022-12-12T23:52:06.684Z,99381.50
2022-12-12T23:54:54.591Z,99375.63
2022-12-12T23:57:42.519Z,99377.34
